sensor_id;sensor_type;location;lat;lon;timestamp;temperature;humidity
66184;DHT22;52989;48.796;9.806;2022-12-07T00:01:41;3.60;99.90
66184;DHT22;52989;48.796;9.806;2022-12-07T00:04:10;3.90;99.90
66184;DHT22;52989;48.796;9.806;2022-12-07T00:06:38;4.50;99.90
66184;DHT22;52989;48.796;9.806;2022-12-07T00:09:05;4.00;99.90
66184;DHT22;52989;48.796;9.806;2022-12-07T00:11:31;3.90;99.90
66184;DHT22;52989;48.796;9.806;2022-12-07T00:13:59;3.60;99.90
66184;DHT22;52989;48.796;9.806;2022-12-07T00:16:28;3.40;99.90
66184;DHT22;52989;48.796;9.806;2022-12-07T00:18:54;3.70;99.90
66184;DHT22;52989;48.796;9.806;2022-12-07T00:21:23;3.80;99.90
66184;DHT22;52989;48.796;9.806;2022-12-07T00:23:50;3.90;99.90
66184;DHT22;52989;48.796;9.806;2022-12-07T00:26:19;4.20;99.90
66184;DHT22;52989;48.796;9.806;2022-12-07T00:28:52;4.40;99.90
66184;DHT22;52989;48.796;9.806;2022-12-07T00:31:19;4.20;99.90
66184;DHT22;52989;48.796;9.806;2022-12-07T00:33:46;4.20;99.90
66184;DHT22;52989;48.796;9.806;2022-12-07T00:36:14;4.50;99.90
66184;DHT22;52989;48.796;9.806;2022-12-07T00:38:40;4.20;99.90
66184;DHT22;52989;48.796;9.806;2022-12-07T00:41:11;4.50;99.90
66184;DHT22;52989;48.796;9.806;2022-12-07T00:43:37;4.10;99.90
66184;DHT22;52989;48.796;9.806;2022-12-07T00:46:03;4.20;99.90
66184;DHT22;52989;48.796;9.806;2022-12-07T00:48:28;4.00;99.90
66184;DHT22;52989;48.796;9.806;2022-12-07T00:50:54;3.90;99.90
66184;DHT22;52989;48.796;9.806;2022-12-07T00:53:20;4.00;99.90
66184;DHT22;52989;48.796;9.806;2022-12-07T00:55:46;4.40;99.90
66184;DHT22;52989;48.796;9.806;2022-12-07T00:58:12;4.10;99.90
66184;DHT22;52989;48.796;9.806;2022-12-07T01:00:39;3.80;99.90
66184;DHT22;52989;48.796;9.806;2022-12-07T01:03:06;3.80;99.90
66184;DHT22;52989;48.796;9.806;2022-12-07T01:05:32;4.30;99.90
66184;DHT22;52989;48.796;9.806;2022-12-07T01:07:57;4.60;99.90
66184;DHT22;52989;48.796;9.806;2022-12-07T01:10:23;4.40;99.90
66184;DHT22;52989;48.796;9.806;2022-12-07T01:12:48;4.20;99.90
66184;DHT22;52989;48.796;9.806;2022-12-07T01:15:14;4.20;99.90
66184;DHT22;52989;48.796;9.806;2022-12-07T01:17:39;4.50;99.90
66184;DHT22;52989;48.796;9.806;2022-12-07T01:20:06;4.30;99.90
66184;DHT22;52989;48.796;9.806;2022-12-07T01:22:35;4.20;99.90
66184;DHT22;52989;48.796;9.806;2022-12-07T01:25:01;4.50;99.90
66184;DHT22;52989;48.796;9.806;2022-12-07T01:27:27;4.30;99.90
66184;DHT22;52989;48.796;9.806;2022-12-07T01:29:52;4.60;99.90
66184;DHT22;52989;48.796;9.806;2022-12-07T01:32:18;4.50;99.90
66184;DHT22;52989;48.796;9.806;2022-12-07T01:34:43;4.20;99.90
66184;DHT22;52989;48.796;9.806;2022-12-07T01:37:09;4.80;99.90
66184;DHT22;52989;48.796;9.806;2022-12-07T01:39:34;4.60;99.90
66184;DHT22;52989;48.796;9.806;2022-12-07T01:42:00;4.30;99.90
66184;DHT22;52989;48.796;9.806;2022-12-07T01:44:28;4.30;99.90
66184;DHT22;52989;48.796;9.806;2022-12-07T01:47:03;4.30;99.90
66184;DHT22;52989;48.796;9.806;2022-12-07T01:49:38;4.20;99.90
66184;DHT22;52989;48.796;9.806;2022-12-07T01:54:33;4.20;99.90
66184;DHT22;52989;48.796;9.806;2022-12-07T01:56:59;4.00;99.90
66184;DHT22;52989;48.796;9.806;2022-12-07T01:59:26;4.20;99.90
66184;DHT22;52989;48.796;9.806;2022-12-07T02:01:53;3.80;99.90
66184;DHT22;52989;48.796;9.806;2022-12-07T02:04:19;4.00;99.90
66184;DHT22;52989;48.796;9.806;2022-12-07T02:06:46;4.40;99.90
66184;DHT22;52989;48.796;9.806;2022-12-07T02:09:12;4.30;99.90
66184;DHT22;52989;48.796;9.806;2022-12-07T02:11:39;4.20;99.90
66184;DHT22;52989;48.796;9.806;2022-12-07T02:14:05;4.00;99.90
66184;DHT22;52989;48.796;9.806;2022-12-07T02:16:58;4.10;99.90
66184;DHT22;52989;48.796;9.806;2022-12-07T02:19:39;4.10;99.90
66184;DHT22;52989;48.796;9.806;2022-12-07T02:22:18;4.00;99.90
66184;DHT22;52989;48.796;9.806;2022-12-07T02:35:15;3.70;99.90
66184;DHT22;52989;48.796;9.806;2022-12-07T02:38:11;3.70;99.90
66184;DHT22;52989;48.796;9.806;2022-12-07T02:40:38;4.20;99.90
66184;DHT22;52989;48.796;9.806;2022-12-07T02:43:26;4.00;99.90
66184;DHT22;52989;48.796;9.806;2022-12-07T02:45:55;4.20;99.90
66184;DHT22;52989;48.796;9.806;2022-12-07T02:48:23;3.90;99.90
66184;DHT22;52989;48.796;9.806;2022-12-07T02:50:51;3.80;99.90
66184;DHT22;52989;48.796;9.806;2022-12-07T02:53:30;3.60;99.90
66184;DHT22;52989;48.796;9.806;2022-12-07T02:55:56;3.30;99.90
66184;DHT22;52989;48.796;9.806;2022-12-07T03:01:14;3.70;99.90
66184;DHT22;52989;48.796;9.806;2022-12-07T03:03:49;3.70;99.90
66184;DHT22;52989;48.796;9.806;2022-12-07T03:06:24;3.40;99.90
66184;DHT22;52989;48.796;9.806;2022-12-07T03:09:15;3.60;99.90
66184;DHT22;52989;48.796;9.806;2022-12-07T03:17:00;3.90;99.90
66184;DHT22;52989;48.796;9.806;2022-12-07T03:19:28;3.50;99.90
66184;DHT22;52989;48.796;9.806;2022-12-07T03:22:08;3.30;99.90
66184;DHT22;52989;48.796;9.806;2022-12-07T03:24:54;3.70;99.90
66184;DHT22;52989;48.796;9.806;2022-12-07T03:27:25;3.80;99.90
66184;DHT22;52989;48.796;9.806;2022-12-07T03:30:00;4.30;99.90
66184;DHT22;52989;48.796;9.806;2022-12-07T03:32:37;3.50;99.90
66184;DHT22;52989;48.796;9.806;2022-12-07T03:35:22;3.50;99.90
66184;DHT22;52989;48.796;9.806;2022-12-07T03:37:57;4.10;99.90
66184;DHT22;52989;48.796;9.806;2022-12-07T03:40:42;4.10;99.90
66184;DHT22;52989;48.796;9.806;2022-12-07T03:43:10;3.80;99.90
66184;DHT22;52989;48.796;9.806;2022-12-07T03:45:40;3.60;99.90
66184;DHT22;52989;48.796;9.806;2022-12-07T03:50:52;4.10;99.90
66184;DHT22;52989;48.796;9.806;2022-12-07T03:53:40;4.20;99.90
66184;DHT22;52989;48.796;9.806;2022-12-07T03:56:12;3.40;99.90
66184;DHT22;52989;48.796;9.806;2022-12-07T03:58:38;3.90;99.90
66184;DHT22;52989;48.796;9.806;2022-12-07T04:01:05;3.80;99.90
66184;DHT22;52989;48.796;9.806;2022-12-07T04:03:30;3.20;99.90
66184;DHT22;52989;48.796;9.806;2022-12-07T04:05:56;3.20;99.90
66184;DHT22;52989;48.796;9.806;2022-12-07T04:08:23;2.90;99.90
66184;DHT22;52989;48.796;9.806;2022-12-07T04:10:48;3.00;99.90
66184;DHT22;52989;48.796;9.806;2022-12-07T04:13:14;3.70;99.90
66184;DHT22;52989;48.796;9.806;2022-12-07T04:15:39;3.30;99.90
66184;DHT22;52989;48.796;9.806;2022-12-07T04:18:05;3.20;99.90
66184;DHT22;52989;48.796;9.806;2022-12-07T04:20:30;2.90;99.90
66184;DHT22;52989;48.796;9.806;2022-12-07T04:22:56;3.10;99.90
66184;DHT22;52989;48.796;9.806;2022-12-07T04:25:22;3.00;99.90
66184;DHT22;52989;48.796;9.806;2022-12-07T04:27:47;3.50;99.90
66184;DHT22;52989;48.796;9.806;2022-12-07T04:30:13;3.90;99.90
66184;DHT22;52989;48.796;9.806;2022-12-07T04:32:38;3.70;99.90
66184;DHT22;52989;48.796;9.806;2022-12-07T04:35:04;3.60;99.90
66184;DHT22;52989;48.796;9.806;2022-12-07T04:37:30;3.10;99.90
66184;DHT22;52989;48.796;9.806;2022-12-07T04:39:56;2.90;99.90
66184;DHT22;52989;48.796;9.806;2022-12-07T04:42:21;3.40;99.90
66184;DHT22;52989;48.796;9.806;2022-12-07T04:44:47;3.70;99.90
66184;DHT22;52989;48.796;9.806;2022-12-07T04:47:12;3.00;99.90
66184;DHT22;52989;48.796;9.806;2022-12-07T04:49:38;2.90;99.90
66184;DHT22;52989;48.796;9.806;2022-12-07T04:52:03;2.90;99.90
66184;DHT22;52989;48.796;9.806;2022-12-07T04:54:29;2.80;99.90
66184;DHT22;52989;48.796;9.806;2022-12-07T04:56:54;2.90;99.90
66184;DHT22;52989;48.796;9.806;2022-12-07T04:59:20;2.90;99.90
66184;DHT22;52989;48.796;9.806;2022-12-07T05:01:46;2.80;99.90
66184;DHT22;52989;48.796;9.806;2022-12-07T05:04:11;3.20;99.90
66184;DHT22;52989;48.796;9.806;2022-12-07T05:06:37;3.00;99.90
66184;DHT22;52989;48.796;9.806;2022-12-07T05:09:03;3.30;99.90
66184;DHT22;52989;48.796;9.806;2022-12-07T05:11:29;3.20;99.90
66184;DHT22;52989;48.796;9.806;2022-12-07T05:14:11;3.20;99.90
66184;DHT22;52989;48.796;9.806;2022-12-07T05:16:38;3.60;99.90
66184;DHT22;52989;48.796;9.806;2022-12-07T05:19:04;3.70;99.90
66184;DHT22;52989;48.796;9.806;2022-12-07T05:21:30;3.40;99.90
66184;DHT22;52989;48.796;9.806;2022-12-07T05:23:55;3.40;99.90
66184;DHT22;52989;48.796;9.806;2022-12-07T05:26:21;3.70;99.90
66184;DHT22;52989;48.796;9.806;2022-12-07T05:28:53;3.10;99.90
66184;DHT22;52989;48.796;9.806;2022-12-07T05:31:19;3.20;99.90
66184;DHT22;52989;48.796;9.806;2022-12-07T05:33:45;3.00;99.90
66184;DHT22;52989;48.796;9.806;2022-12-07T05:36:11;2.90;99.90
66184;DHT22;52989;48.796;9.806;2022-12-07T05:38:36;2.80;99.90
66184;DHT22;52989;48.796;9.806;2022-12-07T05:41:03;3.10;99.90
66184;DHT22;52989;48.796;9.806;2022-12-07T05:43:29;3.20;99.90
66184;DHT22;52989;48.796;9.806;2022-12-07T05:45:55;3.10;99.90
66184;DHT22;52989;48.796;9.806;2022-12-07T05:48:21;3.10;99.90
66184;DHT22;52989;48.796;9.806;2022-12-07T05:50:50;2.90;99.90
66184;DHT22;52989;48.796;9.806;2022-12-07T05:53:16;3.20;99.90
66184;DHT22;52989;48.796;9.806;2022-12-07T05:55:42;3.40;99.90
66184;DHT22;52989;48.796;9.806;2022-12-07T05:58:08;3.30;99.90
66184;DHT22;52989;48.796;9.806;2022-12-07T06:00:57;3.20;99.90
66184;DHT22;52989;48.796;9.806;2022-12-07T06:03:23;3.40;99.90
66184;DHT22;52989;48.796;9.806;2022-12-07T06:05:48;3.20;99.90
66184;DHT22;52989;48.796;9.806;2022-12-07T06:08:14;3.20;99.90
66184;DHT22;52989;48.796;9.806;2022-12-07T06:10:41;3.10;99.90
66184;DHT22;52989;48.796;9.806;2022-12-07T06:13:07;3.10;99.90
66184;DHT22;52989;48.796;9.806;2022-12-07T06:15:35;3.20;99.90
66184;DHT22;52989;48.796;9.806;2022-12-07T06:18:01;3.40;99.90
66184;DHT22;52989;48.796;9.806;2022-12-07T06:20:27;3.40;99.90
66184;DHT22;52989;48.796;9.806;2022-12-07T06:22:52;3.50;99.90
66184;DHT22;52989;48.796;9.806;2022-12-07T06:25:18;3.50;99.90
66184;DHT22;52989;48.796;9.806;2022-12-07T06:27:43;3.30;99.90
66184;DHT22;52989;48.796;9.806;2022-12-07T06:30:09;3.40;99.90
66184;DHT22;52989;48.796;9.806;2022-12-07T06:32:36;3.10;99.90
66184;DHT22;52989;48.796;9.806;2022-12-07T06:35:02;2.80;99.90
66184;DHT22;52989;48.796;9.806;2022-12-07T06:37:28;2.70;99.90
66184;DHT22;52989;48.796;9.806;2022-12-07T06:39:53;2.60;99.90
66184;DHT22;52989;48.796;9.806;2022-12-07T06:42:19;2.80;99.90
66184;DHT22;52989;48.796;9.806;2022-12-07T06:44:44;2.90;99.90
66184;DHT22;52989;48.796;9.806;2022-12-07T06:47:10;3.30;99.90
66184;DHT22;52989;48.796;9.806;2022-12-07T06:49:36;3.20;99.90
66184;DHT22;52989;48.796;9.806;2022-12-07T06:52:02;3.10;99.90
66184;DHT22;52989;48.796;9.806;2022-12-07T06:54:27;2.90;99.90
66184;DHT22;52989;48.796;9.806;2022-12-07T06:56:55;3.30;99.90
66184;DHT22;52989;48.796;9.806;2022-12-07T06:59:21;3.50;99.90
66184;DHT22;52989;48.796;9.806;2022-12-07T07:01:46;3.50;99.90
66184;DHT22;52989;48.796;9.806;2022-12-07T07:04:12;3.50;99.90
66184;DHT22;52989;48.796;9.806;2022-12-07T07:06:37;3.70;99.90
66184;DHT22;52989;48.796;9.806;2022-12-07T07:09:03;3.60;99.90
66184;DHT22;52989;48.796;9.806;2022-12-07T07:11:29;3.30;99.90
66184;DHT22;52989;48.796;9.806;2022-12-07T07:13:54;3.20;99.90
66184;DHT22;52989;48.796;9.806;2022-12-07T07:16:22;3.00;99.90
66184;DHT22;52989;48.796;9.806;2022-12-07T07:18:48;2.70;99.90
66184;DHT22;52989;48.796;9.806;2022-12-07T07:21:14;2.90;99.90
66184;DHT22;52989;48.796;9.806;2022-12-07T07:23:39;2.90;99.90
66184;DHT22;52989;48.796;9.806;2022-12-07T07:26:05;3.10;99.90
66184;DHT22;52989;48.796;9.806;2022-12-07T07:28:30;3.20;99.90
66184;DHT22;52989;48.796;9.806;2022-12-07T07:30:56;3.70;99.90
66184;DHT22;52989;48.796;9.806;2022-12-07T07:33:21;3.80;99.90
66184;DHT22;52989;48.796;9.806;2022-12-07T07:35:47;3.60;99.90
66184;DHT22;52989;48.796;9.806;2022-12-07T07:38:12;3.30;99.90
66184;DHT22;52989;48.796;9.806;2022-12-07T07:40:38;3.40;99.90
66184;DHT22;52989;48.796;9.806;2022-12-07T07:43:04;3.30;99.90
66184;DHT22;52989;48.796;9.806;2022-12-07T07:45:29;3.10;99.90
66184;DHT22;52989;48.796;9.806;2022-12-07T07:47:55;2.90;99.90
66184;DHT22;52989;48.796;9.806;2022-12-07T07:50:20;2.90;99.90
66184;DHT22;52989;48.796;9.806;2022-12-07T07:52:46;2.90;99.90
66184;DHT22;52989;48.796;9.806;2022-12-07T07:55:12;3.00;99.90
66184;DHT22;52989;48.796;9.806;2022-12-07T07:57:38;3.00;99.90
66184;DHT22;52989;48.796;9.806;2022-12-07T08:00:12;2.80;99.90
66184;DHT22;52989;48.796;9.806;2022-12-07T08:02:39;3.10;99.90
66184;DHT22;52989;48.796;9.806;2022-12-07T08:05:05;3.20;99.90
66184;DHT22;52989;48.796;9.806;2022-12-07T08:07:31;3.20;99.90
66184;DHT22;52989;48.796;9.806;2022-12-07T08:09:56;3.40;99.90
66184;DHT22;52989;48.796;9.806;2022-12-07T08:12:22;3.60;99.90
66184;DHT22;52989;48.796;9.806;2022-12-07T08:14:47;3.50;99.90
66184;DHT22;52989;48.796;9.806;2022-12-07T08:17:13;3.40;99.90
66184;DHT22;52989;48.796;9.806;2022-12-07T08:19:38;3.20;99.90
66184;DHT22;52989;48.796;9.806;2022-12-07T08:22:04;3.10;99.90
66184;DHT22;52989;48.796;9.806;2022-12-07T08:24:33;3.10;99.90
66184;DHT22;52989;48.796;9.806;2022-12-07T08:26:58;3.30;99.90
66184;DHT22;52989;48.796;9.806;2022-12-07T08:29:24;3.70;99.90
66184;DHT22;52989;48.796;9.806;2022-12-07T08:31:49;3.30;99.90
66184;DHT22;52989;48.796;9.806;2022-12-07T08:34:15;3.30;99.90
66184;DHT22;52989;48.796;9.806;2022-12-07T08:36:41;3.50;99.90
66184;DHT22;52989;48.796;9.806;2022-12-07T08:39:06;3.70;99.90
66184;DHT22;52989;48.796;9.806;2022-12-07T08:41:32;3.60;99.90
66184;DHT22;52989;48.796;9.806;2022-12-07T08:43:58;3.40;99.90
66184;DHT22;52989;48.796;9.806;2022-12-07T08:46:28;3.70;99.90
66184;DHT22;52989;48.796;9.806;2022-12-07T08:49:08;3.40;99.90
66184;DHT22;52989;48.796;9.806;2022-12-07T08:51:35;3.40;99.90
66184;DHT22;52989;48.796;9.806;2022-12-07T08:54:04;3.50;99.90
66184;DHT22;52989;48.796;9.806;2022-12-07T08:56:31;3.50;99.90
66184;DHT22;52989;48.796;9.806;2022-12-07T08:58:57;3.50;99.90
66184;DHT22;52989;48.796;9.806;2022-12-07T09:01:23;3.40;99.90
66184;DHT22;52989;48.796;9.806;2022-12-07T09:03:49;3.40;99.90
66184;DHT22;52989;48.796;9.806;2022-12-07T09:06:14;3.80;99.90
66184;DHT22;52989;48.796;9.806;2022-12-07T09:08:43;3.60;99.90
66184;DHT22;52989;48.796;9.806;2022-12-07T09:11:10;3.90;99.90
66184;DHT22;52989;48.796;9.806;2022-12-07T09:13:36;4.10;99.90
66184;DHT22;52989;48.796;9.806;2022-12-07T09:16:02;3.70;99.90
66184;DHT22;52989;48.796;9.806;2022-12-07T09:18:27;3.80;99.90
66184;DHT22;52989;48.796;9.806;2022-12-07T09:20:53;3.90;99.90
66184;DHT22;52989;48.796;9.806;2022-12-07T09:23:18;3.80;99.90
66184;DHT22;52989;48.796;9.806;2022-12-07T09:25:44;4.30;99.90
66184;DHT22;52989;48.796;9.806;2022-12-07T09:28:09;4.40;99.90
66184;DHT22;52989;48.796;9.806;2022-12-07T09:30:35;4.10;99.90
66184;DHT22;52989;48.796;9.806;2022-12-07T09:33:01;3.90;99.90
66184;DHT22;52989;48.796;9.806;2022-12-07T09:35:27;3.80;99.90
66184;DHT22;52989;48.796;9.806;2022-12-07T09:37:52;4.20;99.90
66184;DHT22;52989;48.796;9.806;2022-12-07T09:40:21;4.70;99.90
66184;DHT22;52989;48.796;9.806;2022-12-07T09:42:51;4.00;99.90
66184;DHT22;52989;48.796;9.806;2022-12-07T09:45:24;3.70;99.90
66184;DHT22;52989;48.796;9.806;2022-12-07T09:47:50;4.00;99.90
66184;DHT22;52989;48.796;9.806;2022-12-07T09:50:20;4.60;99.90
66184;DHT22;52989;48.796;9.806;2022-12-07T09:52:47;4.50;99.90
66184;DHT22;52989;48.796;9.806;2022-12-07T09:55:19;4.60;99.90
66184;DHT22;52989;48.796;9.806;2022-12-07T09:57:47;4.70;99.90
66184;DHT22;52989;48.796;9.806;2022-12-07T10:00:15;4.30;99.90
66184;DHT22;52989;48.796;9.806;2022-12-07T10:02:50;4.60;99.90
66184;DHT22;52989;48.796;9.806;2022-12-07T10:05:27;4.90;99.90
66184;DHT22;52989;48.796;9.806;2022-12-07T10:07:54;4.90;99.90
66184;DHT22;52989;48.796;9.806;2022-12-07T10:10:39;4.90;99.90
66184;DHT22;52989;48.796;9.806;2022-12-07T10:13:06;4.40;99.90
66184;DHT22;52989;48.796;9.806;2022-12-07T10:18:33;4.60;99.90
66184;DHT22;52989;48.796;9.806;2022-12-07T10:23:29;4.60;99.90
66184;DHT22;52989;48.796;9.806;2022-12-07T10:25:54;4.80;99.90
66184;DHT22;52989;48.796;9.806;2022-12-07T10:28:21;4.30;99.90
66184;DHT22;52989;48.796;9.806;2022-12-07T10:30:48;4.20;99.90
66184;DHT22;52989;48.796;9.806;2022-12-07T10:35:58;4.40;99.90
66184;DHT22;52989;48.796;9.806;2022-12-07T10:38:26;4.30;99.90
66184;DHT22;52989;48.796;9.806;2022-12-07T10:41:07;4.20;99.90
66184;DHT22;52989;48.796;9.806;2022-12-07T10:43:33;4.60;99.90
66184;DHT22;52989;48.796;9.806;2022-12-07T10:46:26;4.90;99.90
66184;DHT22;52989;48.796;9.806;2022-12-07T10:52:20;5.00;99.90
66184;DHT22;52989;48.796;9.806;2022-12-07T11:00:23;4.80;99.90
66184;DHT22;52989;48.796;9.806;2022-12-07T11:11:14;5.40;99.90
66184;DHT22;52989;48.796;9.806;2022-12-07T11:13:52;5.30;99.90
66184;DHT22;52989;48.796;9.806;2022-12-07T11:16:26;5.10;99.90
66184;DHT22;52989;48.796;9.806;2022-12-07T11:19:20;5.50;99.90
66184;DHT22;52989;48.796;9.806;2022-12-07T11:22:01;5.60;99.90
66184;DHT22;52989;48.796;9.806;2022-12-07T11:24:54;5.30;99.90
66184;DHT22;52989;48.796;9.806;2022-12-07T11:27:37;5.60;99.90
66184;DHT22;52989;48.796;9.806;2022-12-07T11:30:22;5.80;99.90
66184;DHT22;52989;48.796;9.806;2022-12-07T11:41:06;5.40;99.90
66184;DHT22;52989;48.796;9.806;2022-12-07T11:44:06;5.40;99.90
66184;DHT22;52989;48.796;9.806;2022-12-07T11:46:56;5.50;99.90
66184;DHT22;52989;48.796;9.806;2022-12-07T11:49:47;5.30;99.90
66184;DHT22;52989;48.796;9.806;2022-12-07T11:52:30;5.10;99.90
66184;DHT22;52989;48.796;9.806;2022-12-07T11:54:57;5.10;99.90
66184;DHT22;52989;48.796;9.806;2022-12-07T11:57:40;5.20;99.90
66184;DHT22;52989;48.796;9.806;2022-12-07T12:00:17;5.20;99.90
66184;DHT22;52989;48.796;9.806;2022-12-07T12:02:51;5.20;99.90
66184;DHT22;52989;48.796;9.806;2022-12-07T12:05:22;5.20;99.90
66184;DHT22;52989;48.796;9.806;2022-12-07T12:08:14;5.20;99.90
66184;DHT22;52989;48.796;9.806;2022-12-07T12:16:42;5.30;99.90
66184;DHT22;52989;48.796;9.806;2022-12-07T12:22:20;5.00;99.90
66184;DHT22;52989;48.796;9.806;2022-12-07T12:24:52;5.00;99.90
66184;DHT22;52989;48.796;9.806;2022-12-07T12:27:25;5.50;99.90
66184;DHT22;52989;48.796;9.806;2022-12-07T12:29:54;5.10;99.90
66184;DHT22;52989;48.796;9.806;2022-12-07T12:32:22;4.90;99.90
66184;DHT22;52989;48.796;9.806;2022-12-07T12:42:55;5.20;99.90
66184;DHT22;52989;48.796;9.806;2022-12-07T12:45:31;5.60;99.90
66184;DHT22;52989;48.796;9.806;2022-12-07T12:48:09;5.30;99.90
66184;DHT22;52989;48.796;9.806;2022-12-07T12:54:03;5.50;99.90
66184;DHT22;52989;48.796;9.806;2022-12-07T12:56:43;5.20;99.90
66184;DHT22;52989;48.796;9.806;2022-12-07T13:02:30;5.50;99.90
66184;DHT22;52989;48.796;9.806;2022-12-07T13:05:18;5.40;99.90
66184;DHT22;52989;48.796;9.806;2022-12-07T13:15:38;5.10;99.90
66184;DHT22;52989;48.796;9.806;2022-12-07T13:26:17;5.80;99.90
66184;DHT22;52989;48.796;9.806;2022-12-07T13:28:48;5.70;99.90
66184;DHT22;52989;48.796;9.806;2022-12-07T13:32:03;5.60;99.90
66184;DHT22;52989;48.796;9.806;2022-12-07T13:34:27;5.60;99.90
66184;DHT22;52989;48.796;9.806;2022-12-07T13:36:51;5.30;99.90
66184;DHT22;52989;48.796;9.806;2022-12-07T13:39:18;5.20;99.90
66184;DHT22;52989;48.796;9.806;2022-12-07T13:41:48;5.40;99.90
66184;DHT22;52989;48.796;9.806;2022-12-07T13:44:17;5.30;99.90
66184;DHT22;52989;48.796;9.806;2022-12-07T13:49:31;5.50;99.90
66184;DHT22;52989;48.796;9.806;2022-12-07T13:52:13;5.00;99.90
66184;DHT22;52989;48.796;9.806;2022-12-07T13:54:48;4.90;99.90
66184;DHT22;52989;48.796;9.806;2022-12-07T13:57:16;5.10;99.90
66184;DHT22;52989;48.796;9.806;2022-12-07T13:59:42;5.30;99.90
66184;DHT22;52989;48.796;9.806;2022-12-07T14:02:29;5.10;99.90
66184;DHT22;52989;48.796;9.806;2022-12-07T14:05:15;5.20;99.90
66184;DHT22;52989;48.796;9.806;2022-12-07T14:07:57;5.10;99.90
66184;DHT22;52989;48.796;9.806;2022-12-07T14:10:28;5.10;99.90
66184;DHT22;52989;48.796;9.806;2022-12-07T14:12:54;5.20;99.90
66184;DHT22;52989;48.796;9.806;2022-12-07T14:15:27;5.30;99.90
66184;DHT22;52989;48.796;9.806;2022-12-07T14:17:54;5.20;99.90
66184;DHT22;52989;48.796;9.806;2022-12-07T14:20:38;5.30;99.90
66184;DHT22;52989;48.796;9.806;2022-12-07T14:23:05;5.20;99.90
66184;DHT22;52989;48.796;9.806;2022-12-07T14:25:50;5.30;99.90
66184;DHT22;52989;48.796;9.806;2022-12-07T14:28:33;5.20;99.90
66184;DHT22;52989;48.796;9.806;2022-12-07T14:31:00;5.10;99.90
66184;DHT22;52989;48.796;9.806;2022-12-07T14:33:27;4.90;99.90
66184;DHT22;52989;48.796;9.806;2022-12-07T14:35:53;5.00;99.90
66184;DHT22;52989;48.796;9.806;2022-12-07T14:38:21;4.90;99.90
66184;DHT22;52989;48.796;9.806;2022-12-07T14:40:48;5.00;99.90
66184;DHT22;52989;48.796;9.806;2022-12-07T14:43:15;5.10;99.90
66184;DHT22;52989;48.796;9.806;2022-12-07T14:45:42;5.00;99.90
66184;DHT22;52989;48.796;9.806;2022-12-07T14:48:11;5.00;99.90
66184;DHT22;52989;48.796;9.806;2022-12-07T14:50:40;4.60;99.90
66184;DHT22;52989;48.796;9.806;2022-12-07T14:53:17;4.60;99.90
66184;DHT22;52989;48.796;9.806;2022-12-07T14:55:44;4.70;99.90
66184;DHT22;52989;48.796;9.806;2022-12-07T14:58:14;4.80;99.90
66184;DHT22;52989;48.796;9.806;2022-12-07T15:00:40;4.80;99.90
66184;DHT22;52989;48.796;9.806;2022-12-07T15:03:05;4.70;99.90
66184;DHT22;52989;48.796;9.806;2022-12-07T15:05:32;4.70;99.90
66184;DHT22;52989;48.796;9.806;2022-12-07T15:07:58;4.70;99.90
66184;DHT22;52989;48.796;9.806;2022-12-07T15:10:27;4.80;99.90
66184;DHT22;52989;48.796;9.806;2022-12-07T15:12:56;4.70;99.90
66184;DHT22;52989;48.796;9.806;2022-12-07T15:15:41;4.70;99.90
66184;DHT22;52989;48.796;9.806;2022-12-07T15:18:07;4.60;99.90
66184;DHT22;52989;48.796;9.806;2022-12-07T15:20:33;4.60;99.90
66184;DHT22;52989;48.796;9.806;2022-12-07T15:22:58;4.40;99.90
66184;DHT22;52989;48.796;9.806;2022-12-07T15:25:24;4.50;99.90
66184;DHT22;52989;48.796;9.806;2022-12-07T15:27:49;4.50;99.90
66184;DHT22;52989;48.796;9.806;2022-12-07T15:30:15;4.30;99.90
66184;DHT22;52989;48.796;9.806;2022-12-07T15:32:41;4.60;99.90
66184;DHT22;52989;48.796;9.806;2022-12-07T15:35:07;4.20;99.90
66184;DHT22;52989;48.796;9.806;2022-12-07T15:37:33;4.10;99.90
66184;DHT22;52989;48.796;9.806;2022-12-07T15:39:58;4.00;99.90
66184;DHT22;52989;48.796;9.806;2022-12-07T15:42:24;3.90;99.90
66184;DHT22;52989;48.796;9.806;2022-12-07T15:44:50;4.10;99.90
66184;DHT22;52989;48.796;9.806;2022-12-07T15:47:39;4.40;99.90
66184;DHT22;52989;48.796;9.806;2022-12-07T15:50:07;4.40;99.90
66184;DHT22;52989;48.796;9.806;2022-12-07T15:52:33;4.60;99.90
66184;DHT22;52989;48.796;9.806;2022-12-07T15:54:59;4.00;99.90
66184;DHT22;52989;48.796;9.806;2022-12-07T15:57:26;4.10;99.90
66184;DHT22;52989;48.796;9.806;2022-12-07T15:59:52;3.90;99.90
66184;DHT22;52989;48.796;9.806;2022-12-07T16:02:18;4.20;99.90
66184;DHT22;52989;48.796;9.806;2022-12-07T16:04:43;4.00;99.90
66184;DHT22;52989;48.796;9.806;2022-12-07T16:07:09;4.10;99.90
66184;DHT22;52989;48.796;9.806;2022-12-07T16:09:37;4.10;99.90
66184;DHT22;52989;48.796;9.806;2022-12-07T16:12:03;4.00;99.90
66184;DHT22;52989;48.796;9.806;2022-12-07T16:14:31;4.10;99.90
66184;DHT22;52989;48.796;9.806;2022-12-07T16:17:01;4.20;99.90
66184;DHT22;52989;48.796;9.806;2022-12-07T16:19:27;4.30;99.90
66184;DHT22;52989;48.796;9.806;2022-12-07T16:21:52;4.30;99.90
66184;DHT22;52989;48.796;9.806;2022-12-07T16:24:18;4.30;99.90
66184;DHT22;52989;48.796;9.806;2022-12-07T16:26:44;4.10;99.90
66184;DHT22;52989;48.796;9.806;2022-12-07T16:29:13;4.10;99.90
66184;DHT22;52989;48.796;9.806;2022-12-07T16:31:39;4.00;99.90
66184;DHT22;52989;48.796;9.806;2022-12-07T16:34:04;4.00;99.90
66184;DHT22;52989;48.796;9.806;2022-12-07T16:36:30;4.20;99.90
66184;DHT22;52989;48.796;9.806;2022-12-07T16:38:58;4.40;99.90
66184;DHT22;52989;48.796;9.806;2022-12-07T16:41:23;4.10;99.90
66184;DHT22;52989;48.796;9.806;2022-12-07T16:43:50;4.10;99.90
66184;DHT22;52989;48.796;9.806;2022-12-07T16:46:15;3.90;99.90
66184;DHT22;52989;48.796;9.806;2022-12-07T16:48:42;3.60;99.90
66184;DHT22;52989;48.796;9.806;2022-12-07T16:51:09;3.60;99.90
66184;DHT22;52989;48.796;9.806;2022-12-07T16:53:37;3.90;99.90
66184;DHT22;52989;48.796;9.806;2022-12-07T16:56:03;3.80;99.90
66184;DHT22;52989;48.796;9.806;2022-12-07T16:58:30;4.10;99.90
66184;DHT22;52989;48.796;9.806;2022-12-07T17:00:56;4.10;99.90
66184;DHT22;52989;48.796;9.806;2022-12-07T17:03:21;4.00;99.90
66184;DHT22;52989;48.796;9.806;2022-12-07T17:05:48;3.80;99.90
66184;DHT22;52989;48.796;9.806;2022-12-07T17:08:14;3.50;99.90
66184;DHT22;52989;48.796;9.806;2022-12-07T17:10:42;3.40;99.90
66184;DHT22;52989;48.796;9.806;2022-12-07T17:13:09;3.80;99.90
66184;DHT22;52989;48.796;9.806;2022-12-07T17:15:59;3.70;99.90
66184;DHT22;52989;48.796;9.806;2022-12-07T17:18:27;4.00;99.90
66184;DHT22;52989;48.796;9.806;2022-12-07T17:20:52;4.10;99.90
66184;DHT22;52989;48.796;9.806;2022-12-07T17:23:18;4.20;99.90
66184;DHT22;52989;48.796;9.806;2022-12-07T17:25:44;3.70;99.90
66184;DHT22;52989;48.796;9.806;2022-12-07T17:28:09;3.90;99.90
66184;DHT22;52989;48.796;9.806;2022-12-07T17:30:35;3.80;99.90
66184;DHT22;52989;48.796;9.806;2022-12-07T17:33:00;3.80;99.90
66184;DHT22;52989;48.796;9.806;2022-12-07T17:35:26;4.10;99.90
66184;DHT22;52989;48.796;9.806;2022-12-07T17:37:52;4.00;99.90